.
WxDataArchive / Data Records for 2006-04-01
2006-03-31 April 2006 2006-04-02

Data Records for Saturday, 01 April 2006

Time	Temp	Chill	HIndex	Humid	Dewpt	 Wind 	HiWind	WindDir	Rain 	Barom 
-----	----	-----	------	-----	-----	------	------	-------	-----	----- 
00:00	52.0	52.0	52.0	68	41.8	4	7	270	0.00	29.767 
00:05	52.0	52.0	52.0	68	41.8	4	7	270	0.00	29.767 
00:10	52.0	52.0	52.0	69	42.1	4	9	270	0.00	29.767 
00:15	51.9	51.9	51.9	69	42.1	3	7	270	0.00	29.770 
00:20	51.9	51.9	51.9	70	42.4	3	5	270	0.00	29.770 
00:25	51.7	51.7	51.7	69	41.9	3	9	270	0.00	29.770 
00:30	51.7	51.7	51.7	69	41.9	6	18	270	0.00	29.769 
00:35	51.6	51.6	51.6	69	41.8	6	12	270	0.00	29.769 
00:40	51.6	51.6	51.6	69	41.8	6	15	270	0.00	29.769 
00:45	51.4	51.4	51.4	69	41.6	5	9	270	0.00	29.768 
00:50	51.3	51.3	51.3	69	41.5	5	11	270	0.00	29.768 
00:55	51.1	51.1	51.1	70	41.7	3	10	270	0.00	29.768 
01:00	51.0	51.0	51.0	70	41.6	5	11	270	0.00	29.776 
01:05	51.0	51.0	51.0	70	41.6	4	11	270	0.00	29.776 
01:10	50.8	50.8	50.8	71	41.7	4	10	270	0.00	29.776 
01:15	50.8	50.8	50.8	71	41.7	5	14	270	0.00	29.777 
01:20	50.7	50.7	50.7	71	41.6	4	13	270	0.00	29.777 
01:25	50.7	50.7	50.7	71	41.6	7	15	270	0.00	29.777 
01:30	50.7	50.7	50.7	71	41.6	6	14	270	0.00	29.780 
01:35	50.5	50.5	50.5	70	41.1	6	16	270	0.00	29.780 
01:40	50.5	50.5	50.5	71	41.5	6	14	270	0.00	29.780 
01:45	50.4	50.4	50.4	71	41.4	5	14	248	0.00	29.776 
01:50	50.2	50.2	50.2	71	41.2	5	14	270	0.00	29.776 
01:55	50.1	50.1	50.1	72	41.4	2	5	248	0.00	29.776 
02:00	50.1	50.1	50.1	72	41.4	4	9	270	0.00	29.779 
02:05	49.9	48.8	49.9	72	41.2	4	13	270	0.00	29.779 
02:10	49.9	49.9	49.9	72	41.2	3	12	270	0.00	29.779 
02:15	49.8	49.8	49.8	73	41.5	3	6	270	0.00	29.778 
02:20	49.8	49.8	49.8	73	41.5	3	10	248	0.00	29.778 
02:25	49.6	49.6	49.6	75	42.0	3	9	270	0.00	29.778 
02:30	49.6	49.6	49.6	73	41.3	2	6	270	0.00	29.782 
02:35	49.5	49.5	49.5	73	41.2	3	10	270	0.00	29.782 
02:40	49.5	49.5	49.5	73	41.2	3	6	270	0.00	29.782 
02:45	49.4	48.2	49.4	72	40.8	4	6	270	0.00	29.785 
02:50	49.2	49.2	49.2	73	40.9	3	5	270	0.00	29.785 
02:55	49.2	49.2	49.2	73	40.9	2	5	248	0.00	29.785 
03:00	48.9	48.9	48.9	72	40.3	3	9	270	0.00	29.789 
03:05	48.8	48.8	48.8	73	40.5	3	7	270	0.00	29.789 
03:10	48.5	48.5	48.5	73	40.2	2	5	292	0.00	29.789 
03:15	48.5	48.5	48.5	73	40.2	3	9	270	0.00	29.789 
03:20	48.3	48.3	48.3	73	40.1	3	6	248	0.00	29.789 
03:25	48.2	48.2	48.2	73	40.0	3	9	270	0.00	29.789 
03:30	48.2	48.2	48.2	73	40.0	3	10	270	0.00	29.794 
03:35	48.0	46.6	48.0	73	39.8	4	9	270	0.00	29.794 
03:40	48.0	48.0	48.0	74	40.1	2	6	270	0.00	29.794 
03:45	48.0	48.0	48.0	74	40.1	3	6	248	0.00	29.797 
03:50	47.9	47.9	47.9	74	40.0	3	5	270	0.00	29.797 
03:55	47.9	47.9	47.9	74	40.0	3	7	270	0.00	29.797 
04:00	47.9	47.9	47.9	74	40.0	3	4	270	0.00	29.804 
04:05	47.7	47.7	47.7	75	40.2	3	6	270	0.00	29.804 
04:10	47.7	47.7	47.7	74	39.8	3	9	270	0.00	29.804 
04:15	47.7	47.7	47.7	74	39.8	3	9	292	0.00	29.809 
04:20	47.7	46.2	47.7	75	40.2	4	9	270	0.00	29.809 
04:25	47.7	46.2	47.7	75	40.2	4	10	270	0.00	29.809 
04:30	47.7	47.7	47.7	75	40.2	3	5	270	0.00	29.811 
04:35	47.6	47.6	47.6	75	40.1	2	4	248	0.00	29.811 
04:40	47.6	47.6	47.6	76	40.4	3	6	270	0.00	29.811 
04:45	47.6	47.6	47.6	76	40.4	3	7	270	0.00	29.816 
04:50	47.6	47.6	47.6	76	40.4	3	5	270	0.00	29.816 
04:55	47.4	47.4	47.4	76	40.2	3	12	270	0.00	29.816 
05:00	47.4	45.9	47.4	76	40.2	4	11	270	0.00	29.824 
05:05	47.3	47.3	47.3	77	40.5	3	5	248	0.00	29.824 
05:10	47.3	47.3	47.3	77	40.5	3	6	248	0.00	29.824 
05:15	47.3	47.3	47.3	77	40.5	3	6	270	0.00	29.828 
05:20	47.3	47.3	47.3	78	40.8	2	5	248	0.00	29.828 
05:25	47.1	47.1	47.1	77	40.3	3	11	270	0.00	29.828 
05:30	47.1	47.1	47.1	78	40.6	2	7	270	0.00	29.833 
05:35	47.1	47.1	47.1	78	40.6	2	4	270	0.00	29.833 
05:40	47.0	47.0	47.0	78	40.5	3	7	248	0.00	29.833 
05:45	47.0	47.0	47.0	78	40.5	3	5	270	0.00	29.840 
05:50	47.0	47.0	47.0	78	40.5	3	6	270	0.00	29.840 
05:55	47.0	47.0	47.0	79	40.8	3	9	248	0.00	29.840 
06:00	46.8	46.8	46.8	78	40.3	3	7	270	0.00	29.843 
06:05	46.8	46.8	46.8	79	40.6	3	10	270	0.00	29.843 
06:10	46.8	46.8	46.8	79	40.6	3	6	270	0.00	29.843 
06:15	46.8	46.8	46.8	79	40.6	2	6	248	0.00	29.862 
06:20	46.8	46.8	46.8	79	40.6	1	3	248	0.00	29.862 
06:25	46.8	46.8	46.8	79	40.6	1	4	248	0.00	29.862 
06:30	46.8	46.8	46.8	79	40.6	3	10	248	0.00	29.865 
06:35	46.8	46.8	46.8	79	40.6	2	5	248	0.00	29.865 
06:40	46.8	46.8	46.8	79	40.6	2	4	270	0.00	29.865 
06:45	46.8	46.8	46.8	79	40.6	1	3	270	0.00	29.874 
06:50	46.8	46.8	46.8	79	40.6	2	4	248	0.00	29.874 
06:55	46.7	46.7	46.7	80	40.9	2	4	248	0.00	29.874 
07:00	46.7	46.7	46.7	80	40.9	1	3	248	0.00	29.880 
07:05	46.7	46.7	46.7	80	40.9	2	4	248	0.00	29.880 
07:10	46.7	46.7	46.7	80	40.9	2	5	225	0.00	29.880 
07:15	46.7	46.7	46.7	80	40.9	3	7	248	0.00	29.889 
07:20	46.7	46.7	46.7	80	40.9	3	9	270	0.00	29.889 
07:25	46.5	46.5	46.5	81	41.0	2	4	270	0.00	29.889 
07:30	46.5	46.5	46.5	81	41.0	2	6	270	0.00	29.896 
07:35	46.4	46.4	46.4	82	41.2	3	6	270	0.00	29.896 
07:40	46.4	46.4	46.4	82	41.2	2	5	248	0.00	29.896 
07:45	46.2	46.2	46.2	82	41.0	2	6	270	0.00	29.901 
07:50	46.2	46.2	46.2	82	41.0	3	7	270	0.00	29.901 
07:55	46.2	46.2	46.2	82	41.0	2	6	248	0.00	29.901 
08:00	46.2	46.2	46.2	83	41.3	2	6	248	0.00	29.910 
08:05	46.1	46.1	46.1	84	41.5	3	7	270	0.00	29.910 
08:10	46.1	46.1	46.1	86	42.1	2	4	248	0.00	29.910 
08:15	46.0	46.0	46.0	87	42.4	2	4	248	0.00	29.917 
08:20	45.8	45.8	45.8	88	42.5	2	7	248	0.00	29.917 
08:25	45.7	45.7	45.7	89	42.6	1	5	248	0.00	29.917 
08:30	45.5	45.5	45.5	90	42.7	3	6	248	0.00	29.928 
08:35	45.5	45.5	45.5	90	42.7	2	5	248	0.00	29.928 
08:40	45.5	45.5	45.5	91	43.0	2	5	248	0.00	29.928 
08:45	45.5	45.5	45.5	90	42.7	2	5	248	0.00	29.929 
08:50	45.7	45.7	45.7	91	43.2	2	5	248	0.00	29.929 
08:55	45.5	45.5	45.5	90	42.7	3	5	270	0.00	29.929 
09:00	45.5	45.5	45.5	90	42.7	3	6	248	0.00	29.934 
09:05	45.5	45.5	45.5	89	42.4	2	4	270	0.00	29.934 
09:10	45.5	45.5	45.5	89	42.4	2	4	248	0.00	29.934 
09:15	45.7	45.7	45.7	88	42.4	2	5	248	0.00	29.939 
09:20	45.7	45.7	45.7	88	42.4	3	5	270	0.00	29.939 
09:25	45.7	45.7	45.7	87	42.1	3	7	270	0.00	29.939 
09:30	45.8	45.8	45.8	87	42.2	3	5	270	0.00	29.946 
09:35	45.8	45.8	45.8	87	42.2	2	6	248	0.00	29.946 
09:40	45.8	45.8	45.8	87	42.2	2	5	248	0.00	29.946 
09:45	45.8	45.8	45.8	87	42.2	2	4	270	0.00	29.949 
09:50	45.8	45.8	45.8	86	41.9	3	5	270	0.00	29.949 
09:55	46.0	46.0	46.0	87	42.4	2	5	270	0.00	29.949 
10:00	46.1	46.1	46.1	87	42.4	2	5	270	0.00	29.953 
10:05	46.2	46.2	46.2	86	42.2	2	4	270	0.00	29.953 
10:10	46.4	46.4	46.4	85	42.1	3	6	270	0.00	29.953 
10:15	46.4	46.4	46.4	84	41.8	3	7	270	0.00	29.961 
10:20	46.7	46.7	46.7	84	42.1	2	4	270	0.00	29.961 
10:25	46.8	46.8	46.8	84	42.2	2	5	292	0.00	29.961 
10:30	46.8	46.8	46.8	84	42.2	3	6	270	0.00	29.965 
10:35	47.0	47.0	47.0	83	42.1	2	5	270	0.00	29.965 
10:40	47.1	47.1	47.1	82	41.9	3	7	270	0.00	29.965 
10:45	47.3	47.3	47.3	83	42.4	3	6	270	0.00	29.970 
10:50	47.3	47.3	47.3	82	42.1	3	6	270	0.00	29.970 
10:55	47.6	47.6	47.6	81	42.1	2	4	248	0.00	29.970 
11:00	47.6	47.6	47.6	82	42.4	3	7	248	0.00	29.976 
11:05	47.6	47.6	47.6	81	42.1	2	5	270	0.00	29.976 
11:10	47.6	47.6	47.6	81	42.1	3	6	292	0.00	29.976 
11:15	47.4	47.4	47.4	80	41.5	3	7	270	0.00	29.983 
11:20	47.7	47.7	47.7	80	41.8	2	5	270	0.00	29.983 
11:25	47.7	47.7	47.7	80	41.8	3	7	270	0.00	29.983 
11:30	47.7	47.7	47.7	79	41.5	2	5	270	0.00	29.989 
11:35	47.9	47.9	47.9	80	42.0	2	5	270	0.00	29.989 
11:40	47.9	47.9	47.9	79	41.7	3	7	270	0.00	29.989 
11:45	48.0	48.0	48.0	80	42.1	3	7	270	0.00	29.993 
11:50	48.5	48.5	48.5	78	42.0	2	5	270	0.00	29.993 
11:55	49.1	49.1	49.1	78	42.5	2	6	315	0.00	29.993 
12:00	49.5	49.5	49.5	76	42.3	3	7	270	0.00	29.994 
12:05	49.5	49.5	49.5	76	42.3	3	6	270	0.00	29.994 
12:10	49.6	49.6	49.6	76	42.3	2	6	270	0.00	29.994 
12:15	49.6	49.6	49.6	76	42.3	2	9	292	0.00	29.997 
12:20	49.6	49.6	49.6	76	42.3	2	5	338	0.00	29.997 
12:25	49.5	49.5	49.5	75	41.9	3	5	315	0.00	29.997 
12:30	49.5	49.5	49.5	76	42.3	3	5	270	0.00	30.002 
12:35	49.6	49.6	49.6	76	42.3	2	4	270	0.00	30.002 
12:40	49.9	49.9	49.9	74	41.9	3	7	248	0.00	30.002 
12:45	49.6	48.4	49.6	74	41.7	4	10	270	0.00	30.005 
12:50	49.5	49.5	49.5	75	41.9	3	6	270	0.00	30.005 
12:55	49.8	49.8	49.8	75	42.2	2	5	292	0.00	30.005 
13:00	49.9	49.9	49.9	74	41.9	2	5	315	0.00	30.010 
13:05	49.8	49.8	49.8	75	42.2	2	4	270	0.00	30.010 
13:10	49.5	49.5	49.5	76	42.3	3	7	270	0.00	30.010 
13:15	48.9	48.9	48.9	76	41.7	3	7	338	0.00	30.015 
13:20	48.8	48.8	48.8	76	41.6	3	10	292	0.00	30.015 
13:25	48.8	48.8	48.8	77	41.9	2	5	270	0.00	30.015 
13:30	49.1	49.1	49.1	77	42.2	2	5	338	0.00	30.014 
13:35	49.6	49.6	49.6	74	41.7	3	5	270	0.00	30.014 
13:40	49.9	49.9	49.9	74	41.9	2	6	270	0.00	30.014 
13:45	49.5	49.5	49.5	73	41.2	3	7	270	0.00	30.012 
13:50	49.4	49.4	49.4	75	41.8	2	7	270	0.00	30.012 
13:55	49.1	49.1	49.1	75	41.5	2	6	338	0.00	30.012 
14:00	48.8	48.8	48.8	77	41.9	2	5	292	0.00	30.014 
14:05	48.5	48.5	48.5	77	41.6	2	4	270	0.00	30.014 
14:10	48.2	48.2	48.2	76	41.0	2	4	292	0.00	30.014 
14:15	48.2	48.2	48.2	77	41.3	2	5	315	0.00	30.019 
14:20	48.2	48.2	48.2	77	41.3	1	4	270	0.00	30.019 
14:25	48.3	48.3	48.3	76	41.1	1	4	292	0.00	30.019 
14:30	48.8	48.8	48.8	75	41.2	2	4	270	0.00	30.021 
14:35	48.9	48.9	48.9	74	41.0	1	3	292	0.00	30.021 
14:40	48.8	48.8	48.8	75	41.2	2	4	270	0.00	30.021 
14:45	48.5	48.5	48.5	77	41.6	1	3	338	0.00	30.026 
14:50	48.3	48.3	48.3	78	41.8	1	3	0	0.00	30.026 
14:55	48.2	48.2	48.2	78	41.7	1	3	292	0.00	30.026 
15:00	48.3	48.3	48.3	77	41.4	1	4	270	0.00	30.029 
15:05	48.3	48.3	48.3	77	41.4	1	3	270	0.00	30.029 
15:10	48.3	48.3	48.3	76	41.1	2	4	270	0.00	30.029 
15:15	48.2	48.2	48.2	76	41.0	2	5	248	0.00	30.030 
15:20	48.2	48.2	48.2	75	40.7	2	4	270	0.00	30.030 
15:25	48.3	48.3	48.3	76	41.1	1	3	315	0.00	30.030 
15:30	48.3	48.3	48.3	76	41.1	1	3	270	0.00	30.033 
15:35	48.3	48.3	48.3	75	40.7	1	3	315	0.00	30.033 
15:40	48.3	48.3	48.3	75	40.7	1	4	292	0.00	30.033 
15:45	48.0	48.0	48.0	75	40.5	2	5	315	0.00	30.037 
15:50	48.0	48.0	48.0	75	40.5	1	3	338	0.00	30.037 
15:55	48.2	48.2	48.2	74	40.3	2	4	292	0.00	30.037 
16:00	47.7	47.7	47.7	77	40.8	2	4	338	0.00	30.045 
16:05	47.4	47.4	47.4	77	40.6	2	4	315	0.00	30.045 
16:10	47.3	47.3	47.3	77	40.5	2	5	315	0.00	30.045 
16:15	47.3	47.3	47.3	78	40.8	1	3	315	0.00	30.050 
16:20	47.4	47.4	47.4	77	40.6	1	4	315	0.00	30.050 
16:25	47.6	47.6	47.6	77	40.8	1	3	292	0.00	30.050 
16:30	47.9	47.9	47.9	76	40.7	1	3	292	0.00	30.046 
16:35	48.3	48.3	48.3	76	41.1	1	4	248	0.00	30.046 
16:40	48.6	48.6	48.6	74	40.7	1	3	248	0.00	30.046 
16:45	48.9	48.9	48.9	74	41.0	1	3	315	0.00	30.043 
16:50	49.1	49.1	49.1	72	40.5	1	3	270	0.00	30.043 
16:55	49.2	49.2	49.2	71	40.2	1	3	248	0.00	30.043 
17:00	49.2	49.2	49.2	71	40.2	2	5	270	0.00	30.045 
17:05	49.2	49.2	49.2	71	40.2	2	5	248	0.00	30.045 
17:10	49.1	49.1	49.1	71	40.1	2	5	248	0.00	30.045 
17:15	49.1	49.1	49.1	71	40.1	1	3	315	0.00	30.047 
17:20	49.1	49.1	49.1	70	39.7	2	3	248	0.00	30.047 
17:25	49.2	49.2	49.2	68	39.1	2	5	248	0.00	30.047 
17:30	49.1	49.1	49.1	70	39.7	2	5	292	0.00	30.047 
17:35	48.9	48.9	48.9	69	39.2	2	6	248	0.00	30.047 
17:40	48.8	48.8	48.8	69	39.1	2	5	270	0.00	30.047 
17:45	48.6	48.6	48.6	70	39.3	1	3	292	0.00	30.043 
17:50	48.6	48.6	48.6	69	38.9	2	5	248	0.00	30.043 
17:55	48.6	48.6	48.6	69	38.9	2	5	248	0.00	30.043 
18:00	48.5	48.5	48.5	70	39.2	2	9	248	0.00	30.046 
18:05	48.3	48.3	48.3	69	38.6	2	4	270	0.00	30.046 
18:10	48.3	48.3	48.3	70	39.0	1	3	248	0.00	30.046 
18:15	48.3	48.3	48.3	70	39.0	2	4	248	0.00	30.050 
18:20	48.2	48.2	48.2	69	38.5	1	3	248	0.00	30.050 
18:25	48.2	48.2	48.2	69	38.5	1	3	248	0.00	30.050 
18:30	48.0	48.0	48.0	69	38.3	2	4	248	0.00	30.052 
18:35	48.0	48.0	48.0	70	38.7	1	4	248	0.00	30.052 
18:40	47.9	47.9	47.9	70	38.6	2	4	248	0.00	30.052 
18:45	47.9	47.9	47.9	69	38.2	1	3	248	0.00	30.058 
18:50	47.7	47.7	47.7	70	38.4	1	3	248	0.00	30.058 
18:55	47.7	47.7	47.7	70	38.4	1	2	248	0.00	30.058 
19:00	47.6	47.6	47.6	70	38.3	1	2	248	0.00	30.063 
19:05	47.6	47.6	47.6	70	38.3	2	5	248	0.00	30.063 
19:10	47.4	47.4	47.4	69	37.7	2	5	248	0.00	30.063 
19:15	47.4	47.4	47.4	70	38.1	2	4	248	0.00	30.065 
19:20	47.4	47.4	47.4	70	38.1	2	4	270	0.00	30.065 
19:25	47.3	47.3	47.3	70	38.0	1	3	270	0.00	30.065 
19:30	47.3	47.3	47.3	71	38.4	1	3	248	0.00	30.067 
19:35	47.1	47.1	47.1	71	38.2	1	4	248	0.00	30.067 
19:40	47.0	47.0	47.0	71	38.1	1	3	225	0.00	30.067 
19:45	47.0	47.0	47.0	71	38.1	1	4	248	0.00	30.067 
19:50	47.0	47.0	47.0	70	37.7	1	2	248	0.00	30.067 
19:55	46.8	46.8	46.8	71	37.9	1	3	248	0.00	30.067 
20:00	46.8	46.8	46.8	71	37.9	1	2	270	0.00	30.076 
20:05	46.7	46.7	46.7	71	37.8	0	2	270	0.00	30.076 
20:10	46.7	46.7	46.7	72	38.2	0	3	270	0.00	30.076 
20:15	46.5	46.5	46.5	71	37.6	1	4	248	0.00	30.083 
20:20	46.5	46.5	46.5	71	37.6	1	3	248	0.00	30.083 
20:25	46.5	46.5	46.5	72	38.0	1	3	270	0.00	30.083 
20:30	46.4	46.4	46.4	72	37.9	1	3	248	0.00	30.085 
20:35	46.4	46.4	46.4	73	38.2	0	1	248	0.00	30.085 
20:40	46.2	46.2	46.2	73	38.0	0	2	248	0.00	30.085 
20:45	46.2	46.2	46.2	73	38.0	0	3	225	0.00	30.095 
20:50	46.2	46.2	46.2	73	38.0	0	3	225	0.00	30.095 
20:55	46.2	46.2	46.2	73	38.0	0	2	248	0.00	30.095 
21:00	46.1	46.1	46.1	73	37.9	0	1	248	0.00	30.097 
21:05	46.1	46.1	46.1	73	37.9	0	1	248	0.00	30.097 
21:10	46.1	46.1	46.1	72	37.6	0	3	315	0.00	30.097 
21:15	46.0	46.0	46.0	72	37.5	0	2	315	0.00	30.098 
21:20	46.0	46.0	46.0	72	37.5	1	3	315	0.00	30.098 
21:25	46.0	46.0	46.0	71	37.1	1	2	315	0.00	30.098 
21:30	46.0	46.0	46.0	71	37.1	0	1	315	0.00	30.097 
21:35	45.8	45.8	45.8	71	36.9	1	2	315	0.00	30.097 
21:40	45.8	45.8	45.8	72	37.3	0	1	315	0.00	30.097 
21:45	45.7	45.7	45.7	72	37.2	0	2	315	0.00	30.091 
21:50	45.7	45.7	45.7	72	37.2	0	2	315	0.00	30.091 
21:55	45.5	45.5	45.5	73	37.4	0	2	315	0.00	30.091 
22:00	45.4	45.4	45.4	73	37.3	0	2	315	0.00	30.097 
22:05	45.4	45.4	45.4	73	37.3	0	2	315	0.00	30.097 
22:10	45.4	45.4	45.4	73	37.3	0	2	315	0.00	30.097 
22:15	45.2	45.2	45.2	73	37.1	0	3	338	0.00	30.099 
22:20	45.2	45.2	45.2	72	36.7	1	2	338	0.00	30.099 
22:25	45.2	45.2	45.2	73	37.1	0	1	315	0.00	30.099 
22:30	45.2	45.2	45.2	73	37.1	0	1	315	0.00	30.095 
22:35	45.2	45.2	45.2	73	37.1	0	2	315	0.00	30.095 
22:40	45.1	45.1	45.1	73	37.0	0	2	315	0.00	30.095 
22:45	45.1	45.1	45.1	73	37.0	0	3	292	0.00	30.089 
22:50	44.9	44.9	44.9	73	36.8	0	1	292	0.00	30.089 
22:55	44.9	44.9	44.9	72	36.4	0	4	292	0.00	30.089 
23:00	44.8	44.8	44.8	70	35.6	0	2	338	0.00	30.089 
23:05	44.8	44.8	44.8	70	35.6	0	1	338	0.00	30.089 
23:10	44.6	44.6	44.6	71	35.8	0	1	338	0.00	30.089 
23:15	44.6	44.6	44.6	70	35.4	0	1	338	0.00	30.084 
23:20	44.6	44.6	44.6	71	35.8	0	1	338	0.00	30.084 
23:25	44.5	44.5	44.5	71	35.7	0	1	338	0.00	30.084 
23:30	44.5	44.5	44.5	71	35.7	0	1	338	0.00	30.085 
23:35	44.5	44.5	44.5	70	35.3	0	2	292	0.00	30.085 
23:40	44.3	44.3	44.3	71	35.5	0	1	292	0.00	30.085 
23:45	44.3	44.3	44.3	70	35.1	0	1	292	0.00	30.081 
23:50	44.3	44.3	44.3	70	35.1	0	0	---	0.00	30.081 
23:55	44.2	44.2	44.2	70	35.0	0	2	292	0.00	30.081 

CoCoRaHS
IN-AL-39
A2 Web Hosting
Creative Commons License
GoDaddy
Look for:

loaded 2017-10-19 14:15:53 • last modified 2010-11-18 10:43:29
Privacy PolicyDisclaimer
• wx.awcolley.com is powered by PmWiki v.2002016 •
• all content (unless otherwise noted) © 2017 A W Colley